Time;durP1;ratioP1;P1;durP2;ratioP2;P2;SDS_P1;SDS_P2;PMS_P1;PMS_P2;Temp;Humidity;BMP_temperature;BMP_pressure;BME280_temperature;BME280_humidity;BME280_pressure;Samples;Min_cycle;Max_cycle;Signal;HPM_P1;HPM_P2
2020/12/02 00:01:34;;;;;;;39.50;20.30;;;;;;;0.73;68.25;101107.29;124622;1097;105009;-72
2020/12/02 00:04:06;;;;;;;73.47;34.60;;;;;;;0.74;67.99;101108.97;124576;1095;104515;-72
2020/12/02 00:06:36;;;;;;;91.87;39.40;;;;;;;0.76;68.09;101101.87;124665;1095;104643;-72
2020/12/02 00:09:11;;;;;;;51.17;23.07;;;;;;;0.81;67.77;101111.32;124504;1095;104593;-73
2020/12/02 00:11:39;;;;;;;49.13;23.17;;;;;;;0.82;68.06;101105.16;124543;1095;104525;-72
2020/12/02 00:14:12;;;;;;;41.30;20.43;;;;;;;0.80;67.61;101101.75;124528;1097;104953;-74
2020/12/02 00:16:40;;;;;;;38.55;19.50;;;;;;;0.82;68.04;101105.16;124631;1095;104667;-72
2020/12/02 00:19:09;;;;;;;38.33;20.87;;;;;;;0.80;67.81;101099.97;124513;1095;104977;-74
2020/12/02 00:21:37;;;;;;;33.37;19.20;;;;;;;0.78;67.72;101101.81;124559;1095;104561;-74
2020/12/02 00:24:06;;;;;;;38.03;21.60;;;;;;;0.78;67.96;101107.91;124463;1095;104528;-71
2020/12/02 00:26:34;;;;;;;31.53;17.20;;;;;;;0.76;67.75;101107.13;124592;1095;105092;-72
2020/12/02 00:29:04;;;;;;;33.07;18.53;;;;;;;0.72;68.13;101110.82;124572;1095;104585;-71
2020/12/02 00:31:32;;;;;;;33.30;18.27;;;;;;;0.69;67.73;101115.36;124551;1095;104513;-74
2020/12/02 00:34:00;;;;;;;35.20;19.00;;;;;;;0.64;68.07;101107.69;124586;1095;104554;-71
2020/12/02 00:36:28;;;;;;;30.87;17.50;;;;;;;0.62;67.89;101111.29;124642;1095;104608;-71
2020/12/02 00:38:56;;;;;;;33.87;18.00;;;;;;;0.61;67.87;101110.44;124554;1095;104512;-74
2020/12/02 00:41:25;;;;;;;35.20;19.07;;;;;;;0.63;67.98;101123.52;124459;1095;104490;-71
2020/12/02 00:43:53;;;;;;;31.90;15.60;;;;;;;0.63;67.59;101115.63;124611;1095;104525;-72
2020/12/02 00:46:21;;;;;;;31.33;16.80;;;;;;;0.64;67.95;101114.73;124603;1095;104912;-73
2020/12/02 00:48:53;;;;;;;34.63;17.53;;;;;;;0.65;67.96;101106.75;124492;1096;104542;-72
2020/12/02 00:51:22;;;;;;;40.87;20.97;;;;;;;0.67;67.56;101107.53;124274;1097;104647;-71
2020/12/02 00:53:50;;;;;;;33.60;17.50;;;;;;;0.68;67.97;101109.26;124506;1095;104596;-73
2020/12/02 00:56:20;;;;;;;31.20;16.70;;;;;;;0.67;67.95;101106.69;124581;1095;104643;-71
2020/12/02 00:58:59;;;;;;;30.37;16.30;;;;;;;0.65;67.15;101108.54;124297;1095;104685;-74
2020/12/02 01:01:38;;;;;;;27.87;15.57;;;;;;;0.65;67.30;101113.80;124541;1095;105079;-74
2020/12/02 01:04:09;;;;;;;32.60;17.10;;;;;;;0.64;67.36;101105.06;124635;1095;104519;-72
2020/12/02 01:06:37;;;;;;;35.17;17.43;;;;;;;0.59;67.75;101109.66;124677;1095;104535;-73
2020/12/02 01:09:05;;;;;;;28.67;15.70;;;;;;;0.54;67.66;101109.00;124623;1095;104586;-71
2020/12/02 01:11:34;;;;;;;29.25;15.60;;;;;;;0.52;67.53;101118.72;124533;1097;104564;-72
2020/12/02 01:14:09;;;;;;;35.27;19.00;;;;;;;0.50;67.05;101110.94;124609;1095;104490;-73
2020/12/02 01:16:40;;;;;;;30.43;14.50;;;;;;;0.43;67.39;101104.24;124577;1095;104596;-73
2020/12/02 01:19:11;;;;;;;29.25;16.10;;;;;;;0.42;67.20;101109.55;124622;1095;104515;-72
2020/12/02 01:21:45;;;;;;;28.47;15.60;;;;;;;0.39;67.37;101100.89;124543;1096;104532;-73
2020/12/02 01:24:20;;;;;;;29.13;16.57;;;;;;;0.38;67.35;101107.05;124588;1095;104634;-71
2020/12/02 01:26:54;;;;;;;31.90;16.67;;;;;;;0.43;67.28;101103.40;124659;1095;104605;-73
2020/12/02 01:29:24;;;;;;;33.15;18.35;;;;;;;0.42;67.63;101107.77;124640;1095;104608;-72
2020/12/02 01:31:59;;;;;;;29.30;16.45;;;;;;;0.41;67.06;101115.73;124502;1097;104532;-72
2020/12/02 01:34:28;;;;;;;32.00;16.53;;;;;;;0.40;67.23;101109.61;124514;1095;104516;-72
2020/12/02 01:37:22;;;;;;;31.93;16.93;;;;;;;0.42;67.23;101113.02;124570;1095;104634;-71
2020/12/02 01:40:00;;;;;;;32.10;15.30;;;;;;;0.37;67.22;101110.61;124605;1097;104942;-72
2020/12/02 01:42:28;;;;;;;28.97;16.20;;;;;;;0.34;67.29;101107.27;124481;1097;104516;-71
2020/12/02 01:44:56;;;;;;;32.63;16.37;;;;;;;0.27;67.27;101109.31;124465;1095;104522;-73
2020/12/02 01:47:37;;;;;;;31.05;16.40;;;;;;;0.23;67.39;101105.09;124662;1095;104558;-72
2020/12/02 01:50:15;;;;;;;35.90;19.03;;;;;;;0.26;67.53;101093.63;124567;1095;104602;-73
2020/12/02 01:52:53;;;;;;;29.27;16.10;;;;;;;0.26;67.40;101104.97;124554;1095;104554;-72
2020/12/02 01:55:28;;;;;;;31.37;17.40;;;;;;;0.29;67.34;101102.22;124669;1097;104522;-72
2020/12/02 01:58:00;;;;;;;31.45;17.10;;;;;;;0.30;67.40;101103.91;124543;1095;104500;-72
2020/12/02 02:00:32;;;;;;;34.63;17.83;;;;;;;0.29;66.98;101102.22;124613;1097;104609;-71
2020/12/02 02:03:06;;;;;;;32.50;16.77;;;;;;;0.23;67.79;101098.99;124591;1095;104577;-72
2020/12/02 02:05:45;;;;;;;32.70;18.20;;;;;;;0.18;66.94;101101.83;124620;1095;104519;-72
2020/12/02 02:08:15;;;;;;;36.30;18.30;;;;;;;0.14;67.26;101093.23;124620;1095;104608;-73
2020/12/02 02:10:48;;;;;;;38.43;19.30;;;;;;;0.09;67.51;101094.34;124597;1095;104606;-71
2020/12/02 02:14:00;;;;;;;37.75;19.35;;;;;;;0.06;67.61;101091.84;124462;1095;104574;-71
2020/12/02 02:16:32;;;;;;;39.23;20.20;;;;;;;0.01;67.43;101083.33;124607;1095;104522;-71
2020/12/02 02:19:00;;;;;;;35.13;18.40;;;;;;;-0.03;67.18;101085.22;124567;1095;104768;-73
2020/12/02 02:21:31;;;;;;;37.40;19.23;;;;;;;-0.08;67.48;101089.80;124608;1095;104625;-72
2020/12/02 02:24:00;;;;;;;35.27;18.23;;;;;;;-0.11;67.38;101093.42;124627;1095;104531;-73
2020/12/02 02:26:39;;;;;;;42.23;21.63;;;;;;;-0.13;67.33;101082.14;124582;1095;104586;-71
2020/12/02 02:29:13;;;;;;;38.37;19.17;;;;;;;-0.17;67.30;101085.81;124578;1095;104659;-71
2020/12/02 02:31:52;;;;;;;39.27;20.57;;;;;;;-0.23;67.16;101084.29;124610;1095;104993;-72
2020/12/02 02:34:21;;;;;;;38.40;19.63;;;;;;;-0.29;67.70;101079.30;124635;1095;104529;-71
2020/12/02 02:36:49;;;;;;;38.73;20.47;;;;;;;-0.32;67.05;101082.05;124628;1095;104524;-70
2020/12/02 02:39:17;;;;;;;39.47;20.43;;;;;;;-0.34;67.06;101083.88;124517;1095;104583;-72
2020/12/02 02:41:46;;;;;;;41.10;21.10;;;;;;;-0.33;67.48;101093.44;124508;1095;104605;-70
2020/12/02 02:44:15;;;;;;;37.30;19.67;;;;;;;-0.34;67.18;101085.66;124493;1095;104580;-73
2020/12/02 02:46:43;;;;;;;42.80;20.77;;;;;;;-0.48;67.15;101083.56;124567;1095;104596;-71
2020/12/02 02:49:11;;;;;;;40.50;19.33;;;;;;;-0.58;66.88;101083.09;124521;1095;104704;-71
2020/12/02 02:51:39;;;;;;;38.93;19.43;;;;;;;-0.67;67.62;101080.86;124597;1095;104571;-72
2020/12/02 02:54:08;;;;;;;44.10;21.47;;;;;;;-0.77;67.48;101087.35;124530;1095;104602;-72
2020/12/02 02:56:36;;;;;;;43.37;20.70;;;;;;;-0.86;67.48;101081.56;124583;1095;104714;-71
2020/12/02 02:59:04;;;;;;;43.57;21.87;;;;;;;-0.98;67.45;101079.44;124483;1095;104683;-71
2020/12/02 03:01:34;;;;;;;43.13;20.63;;;;;;;-1.04;67.50;101084.88;124508;1095;104573;-72
2020/12/02 03:04:03;;;;;;;41.50;20.23;;;;;;;-1.08;67.40;101070.20;124528;1095;104567;-71
2020/12/02 03:06:31;;;;;;;42.23;21.17;;;;;;;-1.09;67.72;101081.61;124524;1095;104897;-72
2020/12/02 03:09:00;;;;;;;40.80;19.70;;;;;;;-1.18;68.21;101085.41;124536;1095;104609;-75
2020/12/02 03:11:28;;;;;;;38.70;20.43;;;;;;;-1.25;66.96;101084.80;124519;1095;104566;-73
2020/12/02 03:13:56;;;;;;;47.03;22.87;;;;;;;-1.30;67.88;101080.64;124641;1095;104566;-72
2020/12/02 03:16:32;;;;;;;39.37;20.00;;;;;;;-1.37;67.90;101084.39;124416;1096;104538;-71
2020/12/02 03:19:05;;;;;;;40.93;20.60;;;;;;;-1.41;67.21;101083.64;124597;1095;104599;-71
2020/12/02 03:21:33;;;;;;;51.10;23.63;;;;;;;-1.39;67.12;101089.67;124500;1095;104725;-71
2020/12/02 03:24:02;;;;;;;41.57;21.47;;;;;;;-1.40;67.85;101093.22;124483;1095;104493;-73
2020/12/02 03:26:30;;;;;;;40.73;21.40;;;;;;;-1.41;67.33;101088.88;124507;1095;104596;-73
2020/12/02 03:28:59;;;;;;;41.00;19.47;;;;;;;-1.39;67.12;101089.67;124586;1095;104650;-72
2020/12/02 03:31:27;;;;;;;46.37;22.70;;;;;;;-1.40;68.12;101083.59;124515;1096;104602;-69
2020/12/02 03:33:56;;;;;;;44.57;21.77;;;;;;;-1.44;68.17;101086.39;124515;1095;104509;-70
2020/12/02 03:36:25;;;;;;;42.33;22.67;;;;;;;-1.42;67.88;101084.57;124554;1095;104493;-71
2020/12/02 03:38:55;;;;;;;45.63;21.93;;;;;;;-1.39;67.92;101090.55;124594;1097;104935;-70
2020/12/02 03:41:23;;;;;;;38.97;19.53;;;;;;;-1.36;68.33;101073.02;124502;1097;104589;-71
2020/12/02 03:43:51;;;;;;;43.37;21.50;;;;;;;-1.31;67.94;101081.54;124494;1095;104599;-71
2020/12/02 03:46:20;;;;;;;45.53;21.57;;;;;;;-1.28;67.84;101084.05;124477;1095;104605;-71
2020/12/02 03:48:48;;;;;;;44.23;21.90;;;;;;;-1.30;68.06;101080.64;124589;1095;104611;-74
2020/12/02 03:51:16;;;;;;;41.90;20.47;;;;;;;-1.33;67.79;101084.20;124482;1095;104536;-72
2020/12/02 03:53:44;;;;;;;36.97;18.90;;;;;;;-1.34;67.82;101072.05;124525;1095;104567;-69
2020/12/02 03:56:14;;;;;;;42.40;20.63;;;;;;;-1.34;67.20;101085.14;124500;1095;104566;-70
2020/12/02 03:58:42;;;;;;;40.73;19.73;;;;;;;-1.37;67.16;101081.77;124564;1095;104724;-71
2020/12/02 04:01:11;;;;;;;40.13;19.70;;;;;;;-1.41;67.70;101089.72;124461;1095;104496;-73
2020/12/02 04:03:39;;;;;;;40.13;20.83;;;;;;;-1.41;67.98;101088.88;124620;1095;104563;-72
2020/12/02 04:06:08;;;;;;;38.35;18.85;;;;;;;-1.41;67.47;101087.11;124637;1096;104541;-72
2020/12/02 04:08:39;;;;;;;43.37;21.57;;;;;;;-1.38;68.48;101083.55;124685;1096;104618;-75
2020/12/02 04:11:09;;;;;;;41.63;20.13;;;;;;;-1.36;67.60;101094.81;124659;1095;104599;-74
2020/12/02 04:13:37;;;;;;;41.95;20.40;;;;;;;-1.28;68.43;101084.05;124675;1095;104497;-74
2020/12/02 04:16:06;;;;;;;38.25;19.20;;;;;;;-1.22;67.16;101083.82;124631;1095;104515;-75
2020/12/02 04:18:34;;;;;;;39.33;18.30;;;;;;;-1.23;67.54;101085.59;124718;1095;104621;-72
2020/12/02 04:21:03;;;;;;;41.63;20.73;;;;;;;-1.27;67.95;101090.98;124701;1095;104936;-74
2020/12/02 04:23:32;;;;;;;43.00;20.67;;;;;;;-1.35;67.80;101095.66;124528;1095;104520;-75
2020/12/02 04:26:01;;;;;;;40.05;20.30;;;;;;;-1.35;67.94;101101.73;124626;1096;104599;-73
2020/12/02 04:28:29;;;;;;;41.70;21.53;;;;;;;-1.41;67.62;101099.35;124622;1095;104611;-73
2020/12/02 04:30:58;;;;;;;37.43;18.40;;;;;;;-1.46;68.54;101103.92;124591;1095;104575;-75
2020/12/02 04:33:27;;;;;;;38.20;19.63;;;;;;;-1.48;67.42;101103.09;124713;1095;104509;-75
2020/12/02 04:35:55;;;;;;;42.13;20.60;;;;;;;-1.52;68.12;101106.73;124683;1095;104640;-73
2020/12/02 04:38:24;;;;;;;37.93;19.07;;;;;;;-1.59;67.97;101106.11;124663;1095;104577;-73
2020/12/02 04:40:52;;;;;;;44.10;20.87;;;;;;;-1.64;68.06;101111.48;124629;1095;104935;-74
2020/12/02 04:43:27;;;;;;;44.40;21.03;;;;;;;-1.73;68.55;101127.53;124628;1095;104595;-73
2020/12/02 04:45:56;;;;;;;32.53;15.33;;;;;;;-1.82;68.45;101105.14;124608;1095;104653;-74
2020/12/02 04:48:30;;;;;;;37.67;18.80;;;;;;;-1.83;69.08;101116.53;124635;1095;104602;-74
2020/12/02 04:51:02;;;;;;;46.87;21.23;;;;;;;-1.80;68.68;101123.41;124686;1095;104611;-75
2020/12/02 04:53:31;;;;;;;51.57;24.23;;;;;;;-1.82;68.12;101120.84;124629;1095;104970;-76
2020/12/02 04:56:00;;;;;;;42.70;20.23;;;;;;;-1.78;68.04;101113.75;124586;1095;104927;-76
2020/12/02 04:58:31;;;;;;;42.33;20.13;;;;;;;-1.74;68.52;101125.81;124628;1095;104592;-74
2020/12/02 05:01:13;;;;;;;;;;;;;;;-1.68;68.97;101119.52;124633;1095;104529;-75
2020/12/02 05:03:53;;;;;;;40.00;19.50;;;;;;;-1.64;67.75;101116.72;124603;1096;104602;-74
2020/12/02 05:06:27;;;;;;;40.57;20.10;;;;;;;-1.63;68.21;101115.83;124650;1095;104951;-73
2020/12/02 05:09:08;;;;;;;43.07;21.50;;;;;;;-1.63;68.14;101117.60;124706;1095;104954;-75
2020/12/02 05:11:36;;;;;;;40.43;20.93;;;;;;;-1.62;67.60;101119.29;124648;1095;104597;-73
2020/12/02 05:14:06;;;;;;;35.70;18.05;;;;;;;-1.65;68.46;101115.03;124596;1095;104574;-74
2020/12/02 05:16:35;;;;;;;33.90;16.53;;;;;;;-1.66;68.09;101113.31;124636;1095;104515;-73
2020/12/02 05:19:13;;;;;;;37.73;18.10;;;;;;;-1.69;67.40;101117.82;124628;1095;104561;-73
2020/12/02 05:21:41;;;;;;;33.40;15.67;;;;;;;-1.74;67.92;101124.97;124639;1095;104591;-73
2020/12/02 05:24:13;;;;;;;33.40;17.05;;;;;;;-1.76;68.55;101125.02;124663;1095;104615;-73
2020/12/02 05:26:43;;;;;;;36.83;19.70;;;;;;;-1.78;68.87;101124.21;124843;1095;104519;-73
2020/12/02 05:29:37;;;;;;;35.13;17.27;;;;;;;-1.81;68.89;101125.18;124963;1095;104928;-73
2020/12/02 05:32:16;;;;;;;37.57;18.77;;;;;;;-1.83;68.54;101127.00;124672;1095;104539;-74
2020/12/02 05:34:45;;;;;;;35.30;17.90;;;;;;;-1.85;68.49;101123.58;124668;1095;104449;-75
2020/12/02 05:37:22;;;;;;;36.63;17.03;;;;;;;-1.85;67.78;101130.55;124582;1095;104952;-74
2020/12/02 05:39:55;;;;;;;32.60;16.97;;;;;;;-1.85;67.59;101123.58;124713;1095;104583;-73
2020/12/02 05:42:31;;;;;;;30.40;14.75;;;;;;;-1.85;68.27;101128.81;124633;1095;104585;-74
2020/12/02 05:45:06;;;;;;;33.50;16.80;;;;;;;-1.87;68.11;101129.75;124629;1095;104488;-74
2020/12/02 05:47:35;;;;;;;34.40;17.50;;;;;;;-1.92;68.38;101126.45;124649;1095;104974;-74
2020/12/02 05:50:06;;;;;;;35.80;18.07;;;;;;;-1.91;68.54;101134.23;124656;1095;104586;-74
2020/12/02 05:52:37;;;;;;;35.00;16.60;;;;;;;-1.91;67.79;101131.61;124636;1096;104541;-74
2020/12/02 05:55:10;;;;;;;36.87;19.27;;;;;;;-1.89;68.58;101131.56;124630;1095;104535;-74
2020/12/02 05:57:51;;;;;;;34.70;17.75;;;;;;;-1.86;67.81;101131.48;124679;1096;104631;-73
2020/12/02 06:00:19;;;;;;;34.70;16.40;;;;;;;-1.77;67.83;101131.17;124693;1095;104573;-74
2020/12/02 06:02:47;;;;;;;35.40;17.70;;;;;;;-1.70;68.57;101122.17;124732;1096;104593;-74
2020/12/02 06:05:16;;;;;;;36.40;17.60;;;;;;;-1.68;68.12;101127.36;124701;1095;104535;-73
2020/12/02 06:07:50;;;;;;;31.00;16.60;;;;;;;-1.68;68.03;101124.75;124679;1095;104558;-74
2020/12/02 06:10:30;;;;;;;38.43;17.97;;;;;;;-1.66;67.33;101139.47;124698;1095;104637;-74
2020/12/02 06:12:58;;;;;;;36.40;17.90;;;;;;;-1.68;66.95;101136.06;124610;1095;104603;-73
2020/12/02 06:15:34;;;;;;;30.27;15.33;;;;;;;-1.77;67.95;101136.40;124587;1097;104563;-73
2020/12/02 06:18:21;;;;;;;34.93;17.93;;;;;;;-1.82;67.95;101138.31;124611;1095;104512;-74
2020/12/02 06:20:51;;;;;;;31.27;15.70;;;;;;;-1.80;67.52;101137.34;124670;1095;104695;-73
2020/12/02 06:23:19;;;;;;;32.60;16.00;;;;;;;-1.80;68.28;101141.73;124409;1097;104641;-72
2020/12/02 06:25:53;;;;;;;29.77;15.97;;;;;;;-1.75;68.04;101145.05;124583;1095;104509;-74
2020/12/02 06:28:47;;;;;;;35.95;16.70;;;;;;;-1.68;67.91;101145.67;124664;1095;104483;-73
2020/12/02 06:31:27;;;;;;;99.03;50.33;;;;;;;-1.65;68.55;101146.43;124649;1095;104598;-76
2020/12/02 06:33:57;;;;;;;1835.83;864.63;;;;;;;-1.66;68.46;101144.70;124677;1095;104618;-73
2020/12/02 06:36:28;;;;;;;591.23;294.00;;;;;;;-1.64;67.55;101152.52;124617;1095;104589;-74
2020/12/02 06:39:22;;;;;;;1063.50;590.05;;;;;;;-1.66;68.91;101149.94;124656;1095;104490;-73
2020/12/02 06:41:50;;;;;;;684.43;356.27;;;;;;;-1.62;67.29;101148.95;124687;1097;104624;-74
2020/12/02 06:44:40;;;;;;;353.93;182.90;;;;;;;-1.54;67.61;101148.69;124634;1095;104611;-74
2020/12/02 06:47:25;;;;;;;272.57;121.93;;;;;;;-1.44;67.52;101155.30;124577;1096;104567;-75
2020/12/02 06:49:58;;;;;;;415.00;299.93;;;;;;;-1.43;67.45;101151.75;124584;1095;104487;-75
2020/12/02 06:52:31;;;;;;;198.13;116.90;;;;;;;-1.40;67.50;101156.89;124622;1095;104683;-77
2020/12/02 06:55:12;;;;;;;131.40;74.00;;;;;;;-1.38;67.64;101159.47;124674;1096;104650;-75
2020/12/02 06:57:40;;;;;;;204.87;141.13;;;;;;;-1.40;67.54;101150.81;124585;1095;104970;-77
2020/12/02 07:00:16;;;;;;;71.67;41.33;;;;;;;-1.37;68.32;101155.08;124629;1097;104487;-77
2020/12/02 07:02:52;;;;;;;68.43;36.53;;;;;;;-1.36;67.62;101155.03;124649;1096;104605;-76
2020/12/02 07:05:27;;;;;;;86.23;49.90;;;;;;;-1.36;67.62;101157.64;124568;1097;104615;-75
2020/12/02 07:08:11;;;;;;;89.23;52.07;;;;;;;-1.39;67.18;101157.73;124646;1095;104551;-74
2020/12/02 07:10:41;;;;;;;59.03;34.37;;;;;;;-1.37;68.13;101142.83;124630;1095;104596;-75
2020/12/02 07:13:15;;;;;;;54.30;31.67;;;;;;;-1.34;67.58;101145.35;124660;1095;104673;-73
2020/12/02 07:15:45;;;;;;;38.10;21.27;;;;;;;-1.33;67.58;101149.66;124623;1095;104615;-76
2020/12/02 07:18:15;;;;;;;55.53;36.87;;;;;;;-1.32;67.50;101148.77;124647;1095;104535;-73
2020/12/02 07:20:50;;;;;;;346.37;169.10;;;;;;;-1.30;68.34;101146.10;124624;1096;104532;-73
2020/12/02 07:23:22;;;;;;;477.77;237.73;;;;;;;-1.31;68.31;101145.25;124675;1095;104638;-74
2020/12/02 07:25:53;;;;;;;;;;;;;;;-1.25;68.20;101145.02;124679;1095;104494;-76
2020/12/02 07:28:23;;;;;;;340.12;188.15;;;;;;;-1.22;67.93;101144.89;124651;1095;104467;-73
2020/12/02 07:30:51;;;;;;;213.53;114.40;;;;;;;-1.17;68.31;101144.75;125783;1095;104525;-74
2020/12/02 07:33:24;;;;;;;204.70;136.63;;;;;;;-1.16;67.07;101146.44;124649;1095;104593;-75
2020/12/02 07:36:13;;;;;;;95.95;55.60;;;;;;;-1.15;66.91;101144.70;124764;1095;104531;-75
2020/12/02 07:38:42;;;;;;;90.97;64.93;;;;;;;-1.08;67.36;101149.66;124625;1095;104573;-76
2020/12/02 07:41:17;;;;;;;72.20;46.05;;;;;;;-1.03;67.94;101152.09;124617;1095;104509;-74
2020/12/02 07:43:49;;;;;;;62.37;38.70;;;;;;;-0.96;67.58;101148.34;124659;1095;104749;-76
2020/12/02 07:46:21;;;;;;;68.43;47.70;;;;;;;-0.93;67.44;101156.06;124649;1095;104516;-74
2020/12/02 07:48:52;;;;;;;61.87;31.27;;;;;;;-0.90;67.81;101153.34;124642;1095;104567;-74
2020/12/02 07:51:24;;;;;;;51.83;31.27;;;;;;;-0.88;67.85;101148.89;124654;1095;104499;-76
2020/12/02 07:54:01;;;;;;;133.23;83.90;;;;;;;-0.89;66.75;101159.43;124689;1095;104602;-74
2020/12/02 07:56:33;;;;;;;102.17;67.47;;;;;;;-0.90;66.98;101158.58;124615;1095;104622;-76
2020/12/02 07:59:09;;;;;;;137.80;85.00;;;;;;;-0.91;67.91;101149.00;124645;1096;104549;-74
2020/12/02 08:02:07;;;;;;;260.37;157.80;;;;;;;-0.89;67.56;101157.66;124734;1095;104500;-74
2020/12/02 08:04:41;;;;;;;159.10;92.67;;;;;;;-0.83;67.18;101151.33;124698;1095;104605;-76
2020/12/02 08:07:11;;;;;;;128.00;76.33;;;;;;;-0.81;67.14;101150.38;124631;1095;104564;-73
2020/12/02 08:09:41;;;;;;;165.97;102.90;;;;;;;-0.77;67.55;101156.36;124718;1096;104490;-74
2020/12/02 08:12:12;;;;;;;120.50;74.07;;;;;;;-0.78;66.85;101153.80;124687;1090;104570;-72
2020/12/02 08:14:44;;;;;;;71.63;39.10;;;;;;;-0.82;67.66;101159.14;124661;1095;104593;-72
2020/12/02 08:17:16;;;;;;;121.97;82.70;;;;;;;-0.77;67.25;101161.61;124671;1090;104513;-73
2020/12/02 08:19:47;;;;;;;81.80;49.73;;;;;;;-0.76;67.35;101154.59;124630;1097;104519;-74
2020/12/02 08:22:28;;;;;;;94.10;58.87;;;;;;;-0.73;67.29;101157.07;124667;1097;104599;-73
2020/12/02 08:25:19;;;;;;;56.80;33.00;;;;;;;-0.75;67.66;101159.78;124528;1095;104891;-75
2020/12/02 08:27:50;;;;;;;124.73;76.33;;;;;;;-0.82;67.55;101153.90;124716;1095;104513;-74
2020/12/02 08:30:21;;;;;;;66.10;40.80;;;;;;;-0.82;66.64;101155.67;124565;1097;104599;-75
2020/12/02 08:32:57;;;;;;;64.58;40.45;;;;;;;-0.80;66.41;101157.31;124628;1095;104513;-73
2020/12/02 08:35:31;;;;;;;95.17;61.67;;;;;;;-0.78;67.47;101154.64;124745;1096;104679;-73
2020/12/02 08:38:01;;;;;;;73.40;46.83;;;;;;;-0.73;66.84;101157.07;124516;1097;104516;-73
2020/12/02 08:40:43;;;;;;;64.50;42.53;;;;;;;-0.77;67.54;101156.36;124483;1095;104503;-75
2020/12/02 08:43:32;;;;;;;39.33;24.12;;;;;;;-0.82;66.92;101156.52;124510;1097;104935;-74
2020/12/02 08:46:22;;;;;;;37.50;23.90;;;;;;;-0.88;67.22;101156.75;124546;1097;104743;-73
2020/12/02 08:48:56;;;;;;;34.17;24.50;;;;;;;-0.89;67.08;101155.03;124506;1095;104589;-73
2020/12/02 08:51:25;;;;;;;30.83;20.53;;;;;;;-0.88;66.71;101154.14;124504;1097;104512;-73
2020/12/02 08:53:57;;;;;;;28.30;19.77;;;;;;;-0.85;67.47;101153.16;124472;1097;104490;-73
2020/12/02 08:56:38;;;;;;;27.27;17.13;;;;;;;-0.85;67.37;101158.39;124517;1097;104653;-75
2020/12/02 08:59:09;;;;;;;28.60;17.93;;;;;;;-0.83;67.13;101153.95;124526;1097;104583;-72
2020/12/02 09:01:39;;;;;;;28.23;18.00;;;;;;;-0.86;66.65;101152.31;124551;1097;104787;-74
2020/12/02 09:04:10;;;;;;;28.53;17.00;;;;;;;-0.90;66.55;101153.34;124467;1096;104599;-73
2020/12/02 09:06:40;;;;;;;35.27;20.97;;;;;;;-0.94;66.80;101149.13;124503;1090;104691;-75
2020/12/02 09:09:10;;;;;;;25.73;14.33;;;;;;;-0.97;66.76;101145.77;124413;1090;104647;-73
2020/12/02 09:11:39;;;;;;;24.00;14.47;;;;;;;-1.00;66.96;101141.51;124453;1095;104599;-75
2020/12/02 09:14:10;;;;;;;25.75;15.00;;;;;;;-0.98;67.58;101142.30;124544;1097;104657;-74
2020/12/02 09:16:47;;;;;;;26.20;14.30;;;;;;;-0.96;66.82;101132.62;124543;1096;104938;-74
2020/12/02 09:19:19;;;;;;;29.00;16.40;;;;;;;-1.01;66.75;101134.55;124544;1095;104654;-73
2020/12/02 09:21:52;;;;;;;43.40;21.20;;;;;;;-0.99;66.57;101130.10;124409;1096;104620;-73
2020/12/02 09:24:22;;;;;;;30.10;15.83;;;;;;;-0.99;66.88;101128.33;124603;1095;104494;-72
2020/12/02 09:26:50;;;;;;;35.65;18.50;;;;;;;-0.93;67.21;101127.25;124746;1090;104647;-73
2020/12/02 09:29:19;;;;;;;29.63;15.03;;;;;;;-0.86;66.66;101125.27;124538;1097;104552;-75
2020/12/02 09:31:47;;;;;;;36.17;19.73;;;;;;;-0.85;67.21;101122.59;124481;1096;104526;-74
2020/12/02 09:34:17;;;;;;;97.97;34.90;;;;;;;-0.85;66.63;101112.11;124465;1096;104564;-73
2020/12/02 09:36:46;;;;;;;35.27;18.20;;;;;;;-0.81;66.99;101111.08;124471;1097;104913;-74
2020/12/02 09:39:15;;;;;;;95.17;42.70;;;;;;;-0.80;66.19;101115.38;124561;1095;104609;-72
2020/12/02 09:42:06;;;;;;;115.60;55.83;;;;;;;-0.84;66.92;101112.95;124440;1097;104597;-73
2020/12/02 09:44:36;;;;;;;382.53;190.43;;;;;;;-0.82;66.95;101098.88;124452;1097;104612;-73
2020/12/02 09:47:08;;;;;;;573.53;271.03;;;;;;;-0.82;66.16;101096.25;124523;1097;104631;-72
2020/12/02 09:49:38;;;;;;;761.97;438.33;;;;;;;-0.85;67.05;101083.29;124685;1095;104605;-73
2020/12/02 09:52:26;;;;;;;333.97;137.77;;;;;;;-0.81;66.94;101081.37;124623;1095;104583;-73
2020/12/02 09:54:55;;;;;;;307.70;117.43;;;;;;;-0.77;66.45;101076.88;124667;1095;104558;-74
2020/12/02 09:57:26;;;;;;;441.10;206.80;;;;;;;-0.75;66.55;101078.54;124651;1095;104938;-73
2020/12/02 09:59:56;;;;;;;256.20;99.35;;;;;;;-0.73;66.30;101083.69;124635;1095;104529;-72
2020/12/02 10:02:41;;;;;;;252.60;106.95;;;;;;;-0.71;67.08;101071.37;124631;1095;104864;-73
2020/12/02 10:05:21;;;;;;;415.00;229.90;;;;;;;-0.72;67.24;101073.16;124569;1095;104513;-72
2020/12/02 10:08:11;;;;;;;398.93;215.07;;;;;;;-0.72;66.82;101061.83;124635;1096;104647;-75
2020/12/02 10:10:50;;;;;;;514.97;312.10;;;;;;;-0.72;67.01;101065.30;124684;1095;104605;-73
2020/12/02 10:13:41;;;;;;;484.97;214.40;;;;;;;-0.69;66.76;101074.83;124565;1095;104525;-75
2020/12/02 10:16:19;;;;;;;409.07;144.43;;;;;;;-0.72;66.86;101060.05;124525;1095;104497;-75
2020/12/02 10:19:02;;;;;;;428.37;150.67;;;;;;;-0.72;66.78;101069.69;124603;1095;104666;-75
2020/12/02 10:21:44;;;;;;;458.17;181.20;;;;;;;-0.72;66.88;101059.20;124599;1095;104635;-74
2020/12/02 10:24:32;;;;;;;391.80;160.05;;;;;;;-0.66;67.17;101053.72;124618;1095;104542;-72
2020/12/02 10:27:16;;;;;;;1043.73;575.60;;;;;;;-0.60;66.43;101058.70;124634;1095;104589;-75
2020/12/02 10:29:58;;;;;;;739.17;367.60;;;;;;;-0.61;66.12;101046.53;124678;1096;104977;-74
2020/12/02 10:32:44;;;;;;;602.23;286.90;;;;;;;-0.68;66.78;101048.53;124598;1095;104551;-73
2020/12/02 10:35:12;;;;;;;585.63;283.50;;;;;;;-0.72;66.29;101044.33;124618;1095;104493;-74
2020/12/02 10:37:43;;;;;;;642.90;340.30;;;;;;;-0.71;67.12;101039.94;124699;1095;104577;-74
2020/12/02 10:40:14;;;;;;;739.83;388.87;;;;;;;-0.73;66.22;101045.27;124635;1095;104682;-73
2020/12/02 10:42:56;;;;;;;439.97;199.80;;;;;;;-0.74;66.10;101026.97;124644;1095;104509;-72
2020/12/02 10:45:24;;;;;;;376.07;156.28;;;;;;;-0.77;66.31;101027.08;124593;1095;104596;-72
2020/12/02 10:48:10;;;;;;;730.27;391.43;;;;;;;-0.80;66.32;101028.07;124612;1095;104620;-73
2020/12/02 10:50:40;;;;;;;363.20;136.20;;;;;;;-0.78;66.94;101023.62;124625;1095;104631;-74
2020/12/02 10:53:11;;;;;;;720.83;408.47;;;;;;;-0.78;66.75;101022.77;124631;1095;104595;-75
2020/12/02 10:55:40;;;;;;;385.97;158.33;;;;;;;-0.78;66.72;101028.02;124562;1095;104535;-73
2020/12/02 10:58:13;;;;;;;422.20;198.03;;;;;;;-0.80;66.74;101023.67;124602;1095;104608;-74
2020/12/02 11:00:42;;;;;;;300.85;121.40;;;;;;;-0.78;66.49;101012.30;124448;1095;104689;-76
2020/12/02 11:03:18;;;;;;;342.20;147.20;;;;;;;-0.81;66.23;101014.13;124624;1095;104910;-73
2020/12/02 11:05:56;;;;;;;327.05;147.30;;;;;;;-0.83;66.81;101018.58;124651;1095;104939;-73
2020/12/02 11:08:34;;;;;;;397.27;169.17;;;;;;;-0.82;66.67;101007.16;124620;1095;104493;-73
2020/12/02 11:11:14;;;;;;;215.47;95.70;;;;;;;-0.81;66.59;101006.27;124674;1095;104599;-72
2020/12/02 11:13:57;;;;;;;442.00;266.63;;;;;;;-0.77;66.91;101008.73;124629;1095;104564;-73
2020/12/02 11:16:34;;;;;;;383.13;178.87;;;;;;;-0.78;66.36;101009.67;124548;1096;105016;-74
2020/12/02 11:19:31;;;;;;;257.20;124.50;;;;;;;-0.82;65.98;101001.92;124628;1096;104599;-73